Time;durP1;ratioP1;P1;durP2;ratioP2;P2;SDS_P1;SDS_P2;PMS_P1;PMS_P2;Temp;Humidity;BMP_temperature;BMP_pressure;BME280_temperature;BME280_humidity;BME280_pressure;Samples;Min_cycle;Max_cycle;Signal;HPM_P1;HPM_P2
2022/05/30 00:01:20;;;;;;;1.83;0.95;;;19.80;98.60;;;;;;4208934;28;20223;-76
2022/05/30 00:03:22;;;;;;;2.00;0.80;;;19.80;98.60;;;;;;4209678;28;20683;-76
2022/05/30 00:05:29;;;;;;;1.73;0.88;;;19.80;98.60;;;;;;4206997;28;20226;-76
2022/05/30 00:07:31;;;;;;;1.48;0.82;;;19.80;98.60;;;;;;4208389;28;20219;-76
2022/05/30 00:09:34;;;;;;;1.45;0.95;;;19.80;98.60;;;;;;4209557;28;20210;-76
2022/05/30 00:11:37;;;;;;;3.08;0.98;;;19.80;98.60;;;;;;4209713;28;20256;-76
2022/05/30 00:13:39;;;;;;;1.67;1.02;;;19.80;98.60;;;;;;4208636;28;20301;-76
2022/05/30 00:15:42;;;;;;;2.80;1.10;;;19.80;98.70;;;;;;4208500;28;20254;-76
2022/05/30 00:17:44;;;;;;;4.95;1.25;;;19.80;98.70;;;;;;4208797;28;20218;-76
2022/05/30 00:19:47;;;;;;;3.90;1.27;;;19.80;98.70;;;;;;4209031;28;20267;-76
2022/05/30 00:21:52;;;;;;;2.35;0.82;;;19.80;98.60;;;;;;4207978;28;20674;-76
2022/05/30 00:23:55;;;;;;;2.70;0.90;;;19.80;98.60;;;;;;4208665;28;21760;-76
2022/05/30 00:25:57;;;;;;;1.85;1.10;;;19.80;98.60;;;;;;4209305;28;20226;-76
2022/05/30 00:27:59;;;;;;;1.33;0.80;;;19.80;98.60;;;;;;4208122;28;20629;-76
2022/05/30 00:30:02;;;;;;;2.22;0.90;;;19.80;98.60;;;;;;4209588;28;20283;-76
2022/05/30 00:32:07;;;;;;;1.40;0.90;;;19.80;98.60;;;;;;4209515;28;20226;-77
2022/05/30 00:34:09;;;;;;;2.50;0.98;;;19.70;98.50;;;;;;4209078;28;20626;-78
2022/05/30 00:36:11;;;;;;;2.53;1.10;;;19.70;98.50;;;;;;4207941;28;20587;-76
2022/05/30 00:38:15;;;;;;;1.48;0.80;;;19.70;98.50;;;;;;4209633;28;20268;-77
2022/05/30 00:40:18;;;;;;;1.67;0.82;;;19.70;98.50;;;;;;4208320;28;20214;-77
2022/05/30 00:42:22;;;;;;;1.42;0.95;;;19.70;98.60;;;;;;4209510;28;20214;-77
2022/05/30 00:44:25;;;;;;;1.40;0.93;;;19.70;98.60;;;;;;4209166;28;20218;-77
2022/05/30 00:46:27;;;;;;;2.25;0.85;;;19.70;98.50;;;;;;4208921;28;20210;-77
2022/05/30 00:48:34;;;;;;;1.75;1.15;;;19.70;98.50;;;;;;4210571;28;20210;-77
2022/05/30 00:50:36;;;;;;;1.63;1.00;;;19.70;98.50;;;;;;4211647;28;20682;-77
2022/05/30 00:52:41;;;;;;;1.90;0.90;;;19.70;98.50;;;;;;4211713;28;20713;-77
2022/05/30 00:54:50;;;;;;;2.08;0.90;;;19.70;98.60;;;;;;4212712;28;20624;-77
2022/05/30 00:56:57;;;;;;;1.08;0.80;;;19.70;98.60;;;;;;4211723;28;20222;-77
2022/05/30 00:59:00;;;;;;;1.77;0.88;;;19.70;98.60;;;;;;4212497;28;20275;-77
2022/05/30 01:01:05;;;;;;;2.05;0.85;;;19.70;98.90;;;;;;4213142;28;20255;-77
2022/05/30 01:07:49;;;;;;;2.47;0.80;;;19.70;98.50;;;;;;4212262;28;20591;-77
2022/05/30 01:09:55;;;;;;;2.72;0.98;;;19.70;98.70;;;;;;4211168;28;20565;-77
2022/05/30 01:12:00;;;;;;;1.95;1.02;;;19.70;98.70;;;;;;4212201;28;20347;-77
2022/05/30 01:14:04;;;;;;;2.20;1.15;;;19.70;98.70;;;;;;4210537;28;20210;-77
2022/05/30 01:16:06;;;;;;;2.15;0.90;;;19.70;98.70;;;;;;4212192;28;20218;-77
2022/05/30 01:18:17;;;;;;;1.88;1.00;;;19.70;98.70;;;;;;4212583;28;20260;-77
2022/05/30 01:20:40;;;;;;;1.75;0.90;;;19.70;98.70;;;;;;4211978;28;20236;-77
2022/05/30 01:23:16;;;;;;;2.08;1.10;;;19.70;98.70;;;;;;4208492;28;20267;-77
2022/05/30 01:25:38;;;;;;;2.28;1.15;;;19.70;98.60;;;;;;4211083;28;20263;-77
2022/05/30 01:27:49;;;;;;;1.60;0.90;;;19.70;98.60;;;;;;4211413;28;20264;-77
2022/05/30 01:29:58;;;;;;;2.20;0.95;;;19.70;98.60;;;;;;4211313;28;20236;-77
2022/05/30 01:32:01;;;;;;;1.85;0.85;;;19.70;98.60;;;;;;4211652;28;20758;-77
2022/05/30 01:34:03;;;;;;;1.75;0.88;;;19.70;98.60;;;;;;4210699;28;20223;-77
2022/05/30 01:36:06;;;;;;;2.53;1.02;;;19.60;98.50;;;;;;4210253;28;20291;-77
2022/05/30 01:38:08;;;;;;;1.80;1.00;;;19.60;98.60;;;;;;4211024;28;20219;-77
2022/05/30 01:40:11;;;;;;;1.00;0.70;;;19.60;98.60;;;;;;4211054;28;20276;-77
2022/05/30 01:42:15;;;;;;;1.58;0.90;;;19.60;98.60;;;;;;4210803;28;20252;-77
2022/05/30 01:44:18;;;;;;;2.10;0.98;;;19.60;98.60;;;;;;4210722;28;20206;-76
2022/05/30 01:46:24;;;;;;;2.05;0.90;;;19.60;98.70;;;;;;4209800;28;20244;-76
2022/05/30 01:48:26;;;;;;;1.13;0.90;;;19.60;98.70;;;;;;4211259;28;20210;-76
2022/05/30 01:50:29;;;;;;;2.08;1.20;;;19.60;98.50;;;;;;4209694;28;20283;-76
2022/05/30 01:52:33;;;;;;;1.92;1.08;;;19.60;98.50;;;;;;4210660;28;20979;-76
2022/05/30 01:54:36;;;;;;;1.95;0.88;;;19.60;98.60;;;;;;4210899;28;20693;-76
2022/05/30 01:56:38;;;;;;;2.25;1.20;;;19.60;98.60;;;;;;4210452;28;20210;-76
2022/05/30 01:58:41;;;;;;;1.67;0.80;;;19.60;98.60;;;;;;4210490;28;20268;-76
2022/05/30 02:00:43;;;;;;;2.10;1.10;;;19.60;98.70;;;;;;4208476;28;20259;-76
2022/05/30 02:02:47;;;;;;;2.08;1.00;;;19.60;98.60;;;;;;4210620;28;20264;-76
2022/05/30 02:04:50;;;;;;;1.70;0.80;;;19.60;98.50;;;;;;4208884;28;20267;-76
2022/05/30 02:06:52;;;;;;;2.15;1.00;;;19.60;98.60;;;;;;4210154;28;20222;-76
2022/05/30 02:08:55;;;;;;;1.50;0.77;;;19.60;98.50;;;;;;4209830;28;20222;-76
2022/05/30 02:10:58;;;;;;;2.38;0.90;;;19.60;98.50;;;;;;4210623;28;20234;-76
2022/05/30 02:13:00;;;;;;;2.10;1.13;;;19.60;98.50;;;;;;4210399;28;20267;-76
2022/05/30 02:15:03;;;;;;;2.65;1.30;;;19.50;98.60;;;;;;4208928;28;20263;-76
2022/05/30 02:17:06;;;;;;;1.33;0.82;;;19.60;98.60;;;;;;4209115;28;20222;-76
2022/05/30 02:19:10;;;;;;;2.28;0.88;;;19.50;98.50;;;;;;4210080;28;20218;-76
2022/05/30 02:21:12;;;;;;;1.90;0.90;;;19.60;98.70;;;;;;4207255;28;20214;-76
2022/05/30 02:23:16;;;;;;;2.83;1.20;;;19.60;98.60;;;;;;4209149;28;21051;-77
2022/05/30 02:25:18;;;;;;;1.52;0.90;;;19.50;98.60;;;;;;4209978;28;20222;-77
2022/05/30 02:27:20;;;;;;;1.73;1.08;;;19.50;98.50;;;;;;4209637;28;20260;-77
2022/05/30 02:29:22;;;;;;;1.67;0.85;;;19.50;98.50;;;;;;4210326;28;20218;-77
2022/05/30 02:31:25;;;;;;;1.45;1.00;;;19.50;98.60;;;;;;4210017;28;20288;-76
2022/05/30 02:38:22;;;;;;;2.28;1.02;;;19.50;98.50;;;;;;4166641;28;20270;-77
2022/05/30 02:40:25;;;;;;;2.50;0.80;;;19.50;98.40;;;;;;4168324;28;20274;-77
2022/05/30 02:42:27;;;;;;;1.30;0.77;;;19.50;98.50;;;;;;4167970;28;20208;-77
2022/05/30 02:44:29;;;;;;;1.83;0.98;;;19.50;98.60;;;;;;4207864;28;20383;-77
2022/05/30 02:46:32;;;;;;;1.98;0.90;;;19.50;98.60;;;;;;4210458;28;20259;-77
2022/05/30 02:48:34;;;;;;;1.42;0.90;;;19.50;98.60;;;;;;4210839;28;20631;-77
2022/05/30 02:50:36;;;;;;;2.30;1.02;;;19.50;98.60;;;;;;4209043;28;20616;-77
2022/05/30 02:52:40;;;;;;;1.98;0.80;;;19.50;98.60;;;;;;4210797;28;21122;-76
2022/05/30 02:54:43;;;;;;;1.90;1.10;;;19.50;98.60;;;;;;4208185;28;20207;-77
2022/05/30 02:56:50;;;;;;;1.65;0.80;;;19.50;98.50;;;;;;4210655;28;20211;-77
2022/05/30 02:58:53;;;;;;;1.75;0.70;;;19.50;98.60;;;;;;4210442;28;20218;-77
2022/05/30 03:00:55;;;;;;;1.77;0.90;;;19.50;98.60;;;;;;4210619;28;20214;-76
2022/05/30 03:02:57;;;;;;;1.88;1.05;;;19.40;98.60;;;;;;4210296;28;20222;-77
2022/05/30 03:05:00;;;;;;;2.42;0.70;;;19.50;98.60;;;;;;4209459;28;20236;-77
2022/05/30 03:07:02;;;;;;;2.17;0.82;;;19.50;98.50;;;;;;4208957;28;20230;-76
2022/05/30 03:09:07;;;;;;;2.50;0.95;;;19.50;98.50;;;;;;4208222;28;20236;-77
2022/05/30 03:11:10;;;;;;;1.80;1.00;;;19.50;98.50;;;;;;4207858;28;20675;-77
2022/05/30 03:13:12;;;;;;;1.23;0.95;;;19.50;98.50;;;;;;4207320;28;20268;-77
2022/05/30 03:15:14;;;;;;;1.20;0.80;;;19.50;98.50;;;;;;4209484;28;20210;-77
2022/05/30 03:17:16;;;;;;;1.42;0.90;;;19.40;98.60;;;;;;4209543;28;20587;-77
2022/05/30 03:19:19;;;;;;;1.58;0.80;;;19.40;98.60;;;;;;4209057;28;20716;-77
2022/05/30 03:21:21;;;;;;;2.00;0.95;;;19.50;98.70;;;;;;4207694;28;20218;-77
2022/05/30 03:23:24;;;;;;;1.33;0.88;;;19.50;98.60;;;;;;4209497;28;20272;-77
2022/05/30 03:25:28;;;;;;;2.38;0.90;;;19.50;98.60;;;;;;4208543;28;20279;-77
2022/05/30 03:27:30;;;;;;;1.70;0.70;;;19.40;98.60;;;;;;4209109;28;20214;-77
2022/05/30 03:29:32;;;;;;;2.00;1.10;;;19.40;98.50;;;;;;4208234;28;20226;-77
2022/05/30 03:31:35;;;;;;;2.83;0.90;;;19.40;98.60;;;;;;4208797;28;20279;-77
2022/05/30 03:33:38;;;;;;;1.95;1.20;;;19.40;98.50;;;;;;4208432;28;20701;-77
2022/05/30 03:35:41;;;;;;;2.35;0.95;;;19.50;98.70;;;;;;4209399;28;20210;-77
2022/05/30 03:37:45;;;;;;;2.10;1.00;;;19.40;98.50;;;;;;4208561;28;20288;-77
2022/05/30 03:39:47;;;;;;;2.63;1.17;;;19.40;98.50;;;;;;4208983;28;20240;-77
2022/05/30 03:41:51;;;;;;;1.90;0.80;;;19.40;98.50;;;;;;4206843;28;20272;-77
2022/05/30 03:43:59;;;;;;;1.42;0.70;;;19.40;98.60;;;;;;4210258;28;20635;-78
2022/05/30 03:46:02;;;;;;;2.70;1.00;;;19.40;98.60;;;;;;4208374;28;20639;-77
2022/05/30 03:48:05;;;;;;;1.70;0.90;;;19.40;98.60;;;;;;4209766;28;20222;-78
2022/05/30 03:50:09;;;;;;;2.25;1.00;;;19.40;98.70;;;;;;4207515;28;20642;-77
2022/05/30 03:52:14;;;;;;;2.30;1.27;;;19.40;98.60;;;;;;4209341;28;20254;-77
2022/05/30 03:54:16;;;;;;;3.03;1.10;;;19.40;98.50;;;;;;4208947;28;20256;-77
2022/05/30 03:56:19;;;;;;;1.60;0.80;;;19.40;98.50;;;;;;4209558;28;20728;-77
2022/05/30 03:58:23;;;;;;;2.13;1.02;;;19.40;98.50;;;;;;4208299;28;20222;-77
2022/05/30 04:00:25;;;;;;;2.35;0.98;;;19.40;98.50;;;;;;4209042;28;20646;-77
2022/05/30 04:02:28;;;;;;;1.92;1.10;;;19.40;98.40;;;;;;4207331;28;20268;-77
2022/05/30 04:04:30;;;;;;;3.03;1.00;;;19.30;98.50;;;;;;4208474;28;20206;-77
2022/05/30 04:06:32;;;;;;;1.48;0.90;;;19.40;98.50;;;;;;4208926;28;20233;-77
2022/05/30 04:08:35;;;;;;;1.38;0.73;;;19.40;98.60;;;;;;4209397;28;20268;-77
2022/05/30 04:10:37;;;;;;;2.47;0.93;;;19.40;98.60;;;;;;4207906;28;20203;-77
2022/05/30 04:12:39;;;;;;;1.52;1.00;;;19.40;98.60;;;;;;4209086;28;20246;-77
2022/05/30 04:14:43;;;;;;;1.33;0.82;;;19.40;98.60;;;;;;4208610;28;20218;-77
2022/05/30 04:16:45;;;;;;;1.80;0.80;;;19.40;98.60;;;;;;4207051;28;20284;-77
2022/05/30 04:18:48;;;;;;;1.58;0.90;;;19.40;98.60;;;;;;4207919;28;20218;-77
2022/05/30 04:20:50;;;;;;;1.95;0.88;;;19.40;98.60;;;;;;4207158;28;20625;-77
2022/05/30 04:22:53;;;;;;;1.05;0.88;;;19.40;98.60;;;;;;4207646;28;20252;-77
2022/05/30 04:24:55;;;;;;;3.83;0.98;;;19.40;98.50;;;;;;4208147;28;20214;-77
2022/05/30 04:26:57;;;;;;;2.85;1.23;;;19.40;98.40;;;;;;4207781;28;20222;-77
2022/05/30 04:29:00;;;;;;;1.90;0.90;;;19.40;98.50;;;;;;4208224;28;20226;-77
2022/05/30 04:31:07;;;;;;;1.88;0.88;;;19.40;98.50;;;;;;4208024;28;20214;-77
2022/05/30 04:33:09;;;;;;;2.83;0.82;;;19.30;98.50;;;;;;4207433;28;20766;-77
2022/05/30 04:35:12;;;;;;;1.77;0.90;;;19.40;98.90;;;;;;4208226;28;20215;-77
2022/05/30 04:37:15;;;;;;;1.45;1.02;;;19.40;98.50;;;;;;4206975;28;20226;-78
2022/05/30 04:39:17;;;;;;;3.33;1.10;;;19.40;98.40;;;;;;4208078;28;20222;-77
2022/05/30 04:41:19;;;;;;;1.92;0.90;;;19.30;98.40;;;;;;4207834;28;20288;-77
2022/05/30 04:43:23;;;;;;;2.97;1.33;;;19.40;98.50;;;;;;4208283;28;20206;-77
2022/05/30 04:45:25;;;;;;;2.28;0.90;;;19.40;98.60;;;;;;4208326;28;20215;-77
2022/05/30 04:47:33;;;;;;;3.15;0.93;;;19.40;98.50;;;;;;4207875;28;20270;-77
2022/05/30 04:49:36;;;;;;;1.45;0.98;;;19.40;98.80;;;;;;4206122;28;20263;-77
2022/05/30 04:51:38;;;;;;;2.67;0.90;;;19.40;98.60;;;;;;4208258;28;20218;-77
2022/05/30 04:53:41;;;;;;;2.53;1.00;;;19.40;98.50;;;;;;4206333;28;20295;-77
2022/05/30 04:55:43;;;;;;;1.52;1.00;;;19.40;98.60;;;;;;4207938;28;20222;-77
2022/05/30 04:57:49;;;;;;;3.50;1.20;;;19.40;98.40;;;;;;4208200;28;20218;-77
2022/05/30 04:59:51;;;;;;;2.28;0.95;;;19.40;98.40;;;;;;4207341;28;20259;-77
2022/05/30 05:01:55;;;;;;;1.67;0.75;;;19.40;98.50;;;;;;4208053;28;20218;-77
2022/05/30 05:03:59;;;;;;;1.75;0.98;;;19.40;98.60;;;;;;4207112;28;20218;-77
2022/05/30 05:06:03;;;;;;;1.98;1.17;;;19.40;98.40;;;;;;4207086;28;20304;-77
2022/05/30 05:08:27;;;;;;;2.55;0.90;;;19.40;98.40;;;;;;4207435;28;20215;-78
2022/05/30 05:10:41;;;;;;;2.33;0.90;;;19.40;98.50;;;;;;4205540;28;20211;-77
2022/05/30 05:12:43;;;;;;;2.20;1.13;;;19.40;98.40;;;;;;4207489;28;20230;-77
2022/05/30 05:14:46;;;;;;;2.88;1.30;;;19.40;98.50;;;;;;4208407;28;20299;-77
2022/05/30 05:16:49;;;;;;;2.45;0.90;;;19.40;98.50;;;;;;4206008;28;20864;-77
2022/05/30 05:18:52;;;;;;;1.95;1.05;;;19.50;98.50;;;;;;4207220;28;20612;-77
2022/05/30 05:20:55;;;;;;;2.67;0.98;;;19.40;98.60;;;;;;4207537;28;20260;-77
2022/05/30 05:22:57;;;;;;;1.95;1.00;;;19.40;98.60;;;;;;4207162;28;20234;-77
2022/05/30 05:25:00;;;;;;;1.85;0.80;;;19.50;98.60;;;;;;4206009;28;20226;-77
2022/05/30 05:27:02;;;;;;;2.65;1.02;;;19.40;98.50;;;;;;4207595;28;20268;-77
2022/05/30 05:29:04;;;;;;;2.03;1.00;;;19.50;98.60;;;;;;4207221;28;20227;-77
2022/05/30 05:31:07;;;;;;;3.22;1.17;;;19.50;98.50;;;;;;4207626;28;20244;-77
2022/05/30 05:33:10;;;;;;;1.77;1.00;;;19.50;98.50;;;;;;4207607;28;20238;-77
2022/05/30 05:35:12;;;;;;;2.25;1.00;;;19.50;98.50;;;;;;4210126;28;20271;-77
2022/05/30 05:37:16;;;;;;;3.10;1.15;;;19.50;98.50;;;;;;4210635;28;20218;-77
2022/05/30 05:39:19;;;;;;;2.65;1.10;;;19.50;98.50;;;;;;4210917;28;20680;-77
2022/05/30 05:41:21;;;;;;;1.55;1.00;;;19.50;98.50;;;;;;4209779;28;20322;-77
2022/05/30 05:43:24;;;;;;;2.05;1.25;;;19.50;98.50;;;;;;4211054;28;20214;-77
2022/05/30 05:45:26;;;;;;;1.48;1.08;;;19.50;98.50;;;;;;4209811;28;20214;-77
2022/05/30 05:47:28;;;;;;;1.85;0.98;;;19.50;98.50;;;;;;4210106;28;20214;-77
2022/05/30 05:49:30;;;;;;;3.63;1.10;;;19.50;98.50;;;;;;4209293;28;20704;-77
2022/05/30 05:51:33;;;;;;;2.80;1.00;;;19.60;98.50;;;;;;4210116;28;20260;-77
2022/05/30 05:53:36;;;;;;;1.70;1.00;;;19.60;98.60;;;;;;4210402;28;20351;-77
2022/05/30 05:55:39;;;;;;;1.67;1.00;;;19.50;98.50;;;;;;4210631;28;20222;-77
2022/05/30 05:57:41;;;;;;;2.33;1.08;;;19.60;98.50;;;;;;4209082;28;20633;-77
2022/05/30 05:59:44;;;;;;;1.55;0.90;;;19.50;98.50;;;;;;4210669;28;20214;-77
2022/05/30 06:01:46;;;;;;;1.88;1.10;;;19.60;98.50;;;;;;4209555;28;20275;-77
2022/05/30 06:03:48;;;;;;;1.73;1.00;;;19.60;98.50;;;;;;4210308;28;20222;-77
2022/05/30 06:05:51;;;;;;;2.28;1.15;;;19.60;98.50;;;;;;4209098;28;20350;-77
2022/05/30 06:07:53;;;;;;;2.25;1.05;;;19.60;98.50;;;;;;4210947;28;20214;-77
2022/05/30 06:09:57;;;;;;;2.47;0.90;;;19.60;98.50;;;;;;4210493;28;20218;-77
2022/05/30 06:11:59;;;;;;;2.53;1.00;;;19.60;98.50;;;;;;4209792;28;20279;-77
2022/05/30 06:14:02;;;;;;;1.98;1.05;;;19.60;98.50;;;;;;4209314;28;20279;-77
2022/05/30 06:16:06;;;;;;;2.65;1.00;;;19.60;98.50;;;;;;4207188;28;20223;-77
2022/05/30 06:18:09;;;;;;;1.92;0.95;;;19.60;98.50;;;;;;4209155;28;20736;-77
2022/05/30 06:20:13;;;;;;;1.80;1.10;;;19.60;98.40;;;;;;4208409;28;20693;-77
2022/05/30 06:22:16;;;;;;;2.95;1.60;;;19.60;98.50;;;;;;4209197;28;20218;-77
2022/05/30 06:24:18;;;;;;;1.65;1.05;;;19.70;98.50;;;;;;4209333;28;20198;-77
2022/05/30 06:26:22;;;;;;;2.67;1.08;;;19.70;98.50;;;;;;4209313;28;20222;-77
2022/05/30 06:28:25;;;;;;;2.05;1.00;;;19.70;98.50;;;;;;4209206;28;20264;-78
2022/05/30 06:30:27;;;;;;;1.85;1.10;;;19.70;98.50;;;;;;4209523;28;20627;-77
2022/05/30 06:32:29;;;;;;;2.88;1.05;;;19.70;98.40;;;;;;4207994;28;20267;-78
2022/05/30 06:34:32;;;;;;;3.78;1.23;;;19.70;98.40;;;;;;4209841;28;20900;-77
2022/05/30 06:36:35;;;;;;;2.35;1.10;;;19.70;98.50;;;;;;4207644;28;20218;-77
2022/05/30 06:38:39;;;;;;;1.92;1.00;;;19.70;98.50;;;;;;4209723;28;20215;-77
2022/05/30 06:40:42;;;;;;;1.40;0.70;;;19.70;98.50;;;;;;4209622;28;20218;-77
2022/05/30 06:42:46;;;;;;;3.92;1.58;;;19.70;98.40;;;;;;4209740;28;20264;-77
2022/05/30 06:44:48;;;;;;;5.57;1.50;;;19.70;98.00;;;;;;4209459;28;20623;-77
2022/05/30 06:46:51;;;;;;;9.05;2.10;;;19.50;97.90;;;;;;4208689;28;20218;-77
2022/05/30 06:48:55;;;;;;;8.68;2.25;;;19.50;97.50;;;;;;4208367;28;20222;-75
2022/05/30 06:50:57;;;;;;;5.18;2.10;;;19.60;97.20;;;;;;4206898;28;20736;-74
2022/05/30 06:53:00;;;;;;;9.65;2.22;;;19.40;97.50;;;;;;4210256;28;20260;-75
2022/05/30 06:55:03;;;;;;;15.18;2.88;;;19.40;97.40;;;;;;4204088;28;21656;-76
2022/05/30 06:59:27;;;;;;;10.77;3.03;;;19.30;99.90;;;;;;4208550;28;20206;-76
2022/05/30 07:01:34;;;;;;;15.38;3.25;;;19.40;99.90;;;;;;4209369;28;20251;-74
2022/05/30 07:03:36;;;;;;;10.60;1.88;;;19.30;99.90;;;;;;4208155;28;20210;-76
2022/05/30 07:05:39;;;;;;;15.60;3.05;;;19.20;99.90;;;;;;4209234;28;20998;-75
2022/05/30 07:07:42;;;;;;;12.93;2.72;;;19.30;99.90;;;;;;4209187;28;20215;-75
2022/05/30 07:09:44;;;;;;;11.57;2.72;;;19.30;99.90;;;;;;4208763;28;20285;-76
2022/05/30 07:11:49;;;;;;;15.40;3.30;;;19.20;99.90;;;;;;4207419;28;20214;-74
2022/05/30 07:13:52;;;;;;;10.52;2.65;;;19.30;99.90;;;;;;4208694;28;20234;-74
2022/05/30 07:15:56;;;;;;;16.27;3.30;;;19.40;99.90;;;;;;4208680;28;20268;-75
2022/05/30 07:17:58;;;;;;;8.60;2.42;;;19.40;99.90;;;;;;4206808;28;20222;-76
2022/05/30 07:20:01;;;;;;;9.90;2.47;;;19.30;99.90;;;;;;4210085;28;20256;-75
2022/05/30 07:22:04;;;;;;;9.68;2.17;;;19.50;99.90;;;;;;4209900;28;20222;-74
2022/05/30 07:24:07;;;;;;;10.57;2.03;;;19.50;99.90;;;;;;4206935;28;20275;-74
2022/05/30 07:26:13;;;;;;;9.35;2.53;;;19.50;99.90;;;;;;4192789;28;20218;-75
2022/05/30 07:28:16;;;;;;;9.43;2.30;;;19.60;99.90;;;;;;4201719;28;20303;-73
2022/05/30 07:30:18;;;;;;;7.25;2.20;;;19.70;99.90;;;;;;4206685;28;20267;-75
2022/05/30 07:32:22;;;;;;;10.70;2.30;;;19.60;99.90;;;;;;4207994;28;20275;-75
2022/05/30 07:34:24;;;;;;;8.40;2.03;;;19.50;99.90;;;;;;4208326;28;20238;-75
2022/05/30 07:36:28;;;;;;;7.05;2.28;;;19.50;99.90;;;;;;4189624;28;20260;-74
2022/05/30 07:38:31;;;;;;;8.20;2.13;;;19.50;99.90;;;;;;4201618;28;20211;-74
2022/05/30 07:40:33;;;;;;;9.88;2.25;;;19.50;99.90;;;;;;4200074;28;20814;-73
2022/05/30 07:42:36;;;;;;;5.45;1.60;;;19.50;99.90;;;;;;4206429;28;20223;-73
2022/05/30 07:44:38;;;;;;;7.07;1.73;;;19.50;99.80;;;;;;4204220;28;20259;-74
2022/05/30 07:46:43;;;;;;;7.25;1.88;;;19.50;98.90;;;;;;4206022;28;20214;-74
2022/05/30 07:48:47;;;;;;;10.88;1.70;;;19.50;98.40;;;;;;4208486;28;20268;-75
2022/05/30 07:50:54;;;;;;;6.82;1.83;;;19.50;98.10;;;;;;4208550;28;20617;-75
2022/05/30 07:52:57;;;;;;;8.85;2.00;;;19.40;98.60;;;;;;4207786;28;20214;-75
2022/05/30 07:55:02;;;;;;;6.88;1.40;;;19.40;99.40;;;;;;4204425;28;20238;-75
2022/05/30 07:57:05;;;;;;;5.13;1.83;;;19.50;99.70;;;;;;4199886;28;20242;-75
2022/05/30 07:59:07;;;;;;;11.38;2.08;;;19.60;99.30;;;;;;4207128;28;20264;-75
2022/05/30 08:01:13;;;;;;;7.25;1.88;;;19.70;99.90;;;;;;4207645;28;20218;-75
2022/05/30 08:03:16;;;;;;;8.07;1.85;;;19.80;99.90;;;;;;4206922;28;20215;-75
2022/05/30 08:05:21;;;;;;;9.13;1.95;;;19.90;99.90;;;;;;4207283;28;20212;-76
2022/05/30 08:07:23;;;;;;;7.50;1.80;;;19.90;99.90;;;;;;4209796;28;20275;-76
2022/05/30 08:09:25;;;;;;;7.13;1.75;;;20.00;99.90;;;;;;4207980;28;20621;-76
2022/05/30 08:11:28;;;;;;;5.15;2.08;;;20.10;99.90;;;;;;4207596;28;20206;-77
2022/05/30 08:13:30;;;;;;;6.05;2.15;;;20.10;99.90;;;;;;4198882;28;20211;-77
2022/05/30 08:15:32;;;;;;;6.70;1.70;;;20.10;99.90;;;;;;4203944;28;20238;-77
2022/05/30 08:17:35;;;;;;;9.27;2.10;;;20.10;99.90;;;;;;4201311;28;20272;-77
2022/05/30 08:19:40;;;;;;;6.10;1.60;;;20.10;99.90;;;;;;4204539;28;20279;-78
2022/05/30 08:21:43;;;;;;;7.97;2.00;;;20.20;99.90;;;;;;4207565;28;20315;-76
2022/05/30 08:23:46;;;;;;;5.38;1.67;;;20.30;99.90;;;;;;4204455;28;20213;-76
2022/05/30 08:25:48;;;;;;;8.43;1.77;;;20.30;99.90;;;;;;4206638;28;20198;-78
2022/05/30 08:27:51;;;;;;;6.97;1.58;;;20.40;99.90;;;;;;4208019;28;20229;-76
2022/05/30 08:29:53;;;;;;;6.68;1.60;;;20.40;99.90;;;;;;4207191;28;20279;-75
2022/05/30 08:31:55;;;;;;;9.70;2.08;;;20.40;99.90;;;;;;4208287;28;20218;-77
2022/05/30 08:33:58;;;;;;;4.40;1.25;;;20.50;99.90;;;;;;4204400;28;20264;-76
2022/05/30 08:36:02;;;;;;;6.45;1.58;;;20.50;99.90;;;;;;4207306;28;20210;-77
2022/05/30 08:38:06;;;;;;;6.75;1.77;;;20.50;99.90;;;;;;4206191;28;20271;-76
2022/05/30 08:42:33;;;;;;;5.25;1.50;;;20.50;98.60;;;;;;4200051;28;20199;-76
2022/05/30 08:44:36;;;;;;;5.88;1.80;;;20.40;97.00;;;;;;4205816;28;20214;-76
2022/05/30 08:46:48;;;;;;;4.10;1.20;;;20.40;95.80;;;;;;4206253;28;20256;-77
2022/05/30 08:49:02;;;;;;;3.88;1.55;;;20.20;94.60;;;;;;4206584;28;20263;-77
2022/05/30 08:51:16;;;;;;;5.28;1.55;;;20.10;94.10;;;;;;4207494;28;20214;-75
2022/05/30 08:54:00;;;;;;;3.58;1.00;;;20.10;93.40;;;;;;4203784;28;20236;-77
2022/05/30 08:56:16;;;;;;;5.00;1.10;;;20.10;92.80;;;;;;4205596;28;20238;-77
2022/05/30 08:58:34;;;;;;;3.58;1.08;;;20.00;91.90;;;;;;4207595;28;20218;-78
2022/05/30 09:00:42;;;;;;;4.93;1.20;;;19.90;91.80;;;;;;4205763;28;20268;-79
2022/05/30 09:02:51;;;;;;;3.85;1.38;;;19.80;91.80;;;;;;4205334;28;20213;-77
2022/05/30 09:04:59;;;;;;;4.13;1.20;;;19.90;92.00;;;;;;4206439;28;20214;-78
2022/05/30 09:07:04;;;;;;;4.78;1.38;;;19.90;92.10;;;;;;4204809;28;20287;-75
2022/05/30 09:09:16;;;;;;;5.03;0.93;;;20.10;93.70;;;;;;4204476;28;20662;-77
2022/05/30 09:11:29;;;;;;;3.30;1.38;;;20.10;94.30;;;;;;4211291;28;20222;-79
2022/05/30 09:13:38;;;;;;;4.80;1.30;;;20.20;94.80;;;;;;4206186;28;20209;-78
2022/05/30 09:15:44;;;;;;;3.03;1.15;;;20.20;95.20;;;;;;4210380;28;20242;-78
2022/05/30 09:17:51;;;;;;;4.88;1.48;;;20.30;94.80;;;;;;4210356;28;20311;-78
2022/05/30 09:19:56;;;;;;;5.35;1.38;;;20.30;95.30;;;;;;4209489;28;20214;-77
2022/05/30 09:22:03;;;;;;;3.72;1.25;;;20.40;95.70;;;;;;4210059;28;20283;-77
2022/05/30 09:24:06;;;;;;;2.65;1.10;;;20.40;95.80;;;;;;4210601;28;20260;-78
2022/05/30 09:26:12;;;;;;;3.83;1.20;;;20.40;96.10;;;;;;4210155;28;20230;-77
2022/05/30 09:28:16;;;;;;;5.03;1.30;;;20.40;96.30;;;;;;4207679;28;20222;-77
2022/05/30 09:30:27;;;;;;;3.25;1.10;;;20.40;96.70;;;;;;4210656;28;21145;-77
2022/05/30 09:32:38;;;;;;;2.83;1.10;;;20.40;97.10;;;;;;4209921;28;20214;-77
2022/05/30 09:34:45;;;;;;;3.35;1.23;;;20.50;96.90;;;;;;4204580;28;20279;-75
2022/05/30 09:36:51;;;;;;;5.15;1.63;;;20.50;97.30;;;;;;4209611;28;21036;-75
2022/05/30 09:38:58;;;;;;;8.20;1.50;;;20.50;96.50;;;;;;4199090;28;20222;-75
2022/05/30 09:41:06;;;;;;;6.10;1.63;;;20.40;96.20;;;;;;4206709;28;21004;-74
2022/05/30 09:43:22;;;;;;;8.80;1.95;;;20.40;96.30;;;;;;4206927;28;20593;-74
2022/05/30 09:45:28;;;;;;;3.53;1.27;;;20.40;96.50;;;;;;4206512;28;21700;-75
2022/05/30 09:47:30;;;;;;;3.28;1.25;;;20.40;96.90;;;;;;4208115;28;20268;-76
2022/05/30 09:49:42;;;;;;;4.70;1.20;;;20.40;96.90;;;;;;4205862;28;20218;-75
2022/05/30 09:51:47;;;;;;;7.68;1.58;;;20.40;97.10;;;;;;4206168;28;20727;-75
2022/05/30 09:53:50;;;;;;;2.65;1.02;;;20.40;96.90;;;;;;4210486;28;20256;-75
2022/05/30 09:55:52;;;;;;;3.30;1.23;;;20.40;96.80;;;;;;4208391;28;20264;-75
2022/05/30 09:57:58;;;;;;;4.55;1.20;;;20.50;96.90;;;;;;4204449;28;20211;-75
2022/05/30 10:00:09;;;;;;;6.13;1.25;;;20.50;97.10;;;;;;4203614;28;20219;-77
2022/05/30 10:02:22;;;;;;;10.90;1.63;;;20.50;97.00;;;;;;4200270;28;20240;-76
2022/05/30 10:04:37;;;;;;;6.75;1.48;;;20.50;96.80;;;;;;4205035;28;20214;-76
2022/05/30 10:06:40;;;;;;;4.80;1.40;;;20.50;96.70;;;;;;4207681;28;20295;-78
2022/05/30 10:08:43;;;;;;;4.85;1.17;;;20.50;96.60;;;;;;4206148;28;20241;-77
2022/05/30 10:10:49;;;;;;;5.20;1.17;;;20.60;96.70;;;;;;4208944;28;20247;-77
2022/05/30 10:12:56;;;;;;;3.33;1.10;;;20.60;96.80;;;;;;4201166;28;20263;-76
2022/05/30 10:14:59;;;;;;;4.75;1.20;;;20.60;97.10;;;;;;4205585;28;20744;-76
2022/05/30 10:17:13;;;;;;;6.70;1.52;;;20.60;97.20;;;;;;4203527;28;20210;-76
2022/05/30 10:19:25;;;;;;;5.63;1.35;;;20.60;97.20;;;;;;4208540;28;20276;-76
2022/05/30 10:21:38;;;;;;;5.93;1.30;;;20.60;96.80;;;;;;4205368;28;20242;-77
2022/05/30 10:28:58;;;;;;;3.58;1.25;;;20.70;97.10;;;;;;4206213;28;20218;-76
2022/05/30 10:31:13;;;;;;;5.97;1.50;;;20.70;97.20;;;;;;4204018;28;20615;-76
2022/05/30 10:33:27;;;;;;;4.68;1.30;;;20.60;97.40;;;;;;4209721;28;20272;-75
2022/05/30 10:35:39;;;;;;;4.25;1.17;;;20.70;97.30;;;;;;4205972;28;22219;-72
2022/05/30 10:38:02;;;;;;;6.47;1.42;;;20.70;97.40;;;;;;4203699;28;20215;-74
2022/05/30 10:40:18;;;;;;;4.63;1.30;;;20.70;97.50;;;;;;4208827;28;20656;-74
2022/05/30 10:42:27;;;;;;;3.53;1.30;;;20.70;97.50;;;;;;4202249;28;20214;-74
2022/05/30 10:44:32;;;;;;;4.85;1.58;;;20.80;97.80;;;;;;4206908;28;20226;-76
2022/05/30 10:46:48;;;;;;;7.20;1.67;;;20.70;97.60;;;;;;4202785;28;20210;-75
2022/05/30 10:48:58;;;;;;;6.70;1.45;;;20.60;97.60;;;;;;4206610;28;20218;-74
2022/05/30 10:51:05;;;;;;;7.38;1.35;;;20.70;97.70;;;;;;4205449;28;20202;-75
2022/05/30 10:53:09;;;;;;;4.57;1.05;;;20.70;97.70;;;;;;4207375;28;20271;-75
2022/05/30 10:55:14;;;;;;;3.95;1.40;;;20.80;97.90;;;;;;4205981;28;20226;-74
2022/05/30 10:57:24;;;;;;;6.85;1.83;;;20.80;97.90;;;;;;4203179;28;20591;-74
2022/05/30 10:59:35;;;;;;;3.00;1.38;;;20.80;97.90;;;;;;4208121;28;20226;-74
2022/05/30 11:01:45;;;;;;;3.70;1.00;;;20.80;97.90;;;;;;4205685;28;20733;-76
2022/05/30 11:04:00;;;;;;;5.63;1.25;;;20.80;97.90;;;;;;4204355;28;20751;-76
2022/05/30 11:06:14;;;;;;;4.95;1.30;;;20.80;97.90;;;;;;4206073;28;20235;-75
2022/05/30 11:08:25;;;;;;;5.88;1.30;;;20.80;98.00;;;;;;4206035;28;20232;-75